Time;durP1;ratioP1;P1;durP2;ratioP2;P2;SDS_P1;SDS_P2;PMS_P1;PMS_P2;Temp;Humidity;BMP_temperature;BMP_pressure;BME280_temperature;BME280_humidity;BME280_pressure;Samples;Min_cycle;Max_cycle;Signal;HPM_P1;HPM_P2
2021/04/02 00:02:05;;;;;;;7.07;1.30;;;7.90;74.00;;;;;;4886309;29;20055;-69
2021/04/02 00:04:31;;;;;;;6.10;1.42;;;7.80;74.40;;;;;;4886484;29;20086;-68
2021/04/02 00:06:56;;;;;;;9.60;1.20;;;7.80;74.10;;;;;;4854469;29;20162;-68
2021/04/02 00:09:22;;;;;;;7.05;1.52;;;7.80;73.80;;;;;;4886000;29;20041;-68
2021/04/02 00:11:48;;;;;;;8.73;2.30;;;7.70;73.60;;;;;;4886824;29;20037;-69
2021/04/02 00:14:13;;;;;;;6.07;1.42;;;7.70;74.20;;;;;;4888976;29;20040;-68
2021/04/02 00:16:39;;;;;;;6.25;1.83;;;7.70;74.60;;;;;;4885157;29;20450;-68
2021/04/02 00:19:06;;;;;;;4.03;1.15;;;7.70;74.50;;;;;;4854772;29;20659;-67
2021/04/02 00:21:32;;;;;;;6.60;2.40;;;7.70;74.10;;;;;;4868507;29;20076;-67
2021/04/02 00:23:58;;;;;;;16.08;6.20;;;7.80;75.30;;;;;;4887307;29;20056;-67
2021/04/02 00:26:24;;;;;;;12.05;2.80;;;8.00;77.40;;;;;;4868288;29;20059;-67
2021/04/02 00:28:52;;;;;;;12.30;3.72;;;8.40;78.60;;;;;;4887163;29;20060;-70
2021/04/02 00:31:19;;;;;;;10.48;5.07;;;8.70;77.50;;;;;;4869545;29;20058;-69
2021/04/02 00:33:45;;;;;;;7.75;2.22;;;9.00;78.00;;;;;;4871119;29;20067;-69
2021/04/02 00:36:11;;;;;;;10.50;1.88;;;9.20;76.90;;;;;;4888006;29;20044;-68
2021/04/02 00:38:36;;;;;;;14.13;6.97;;;9.30;75.90;;;;;;4869393;29;20036;-69
2021/04/02 00:41:12;;;;;;;15.77;5.80;;;9.40;76.70;;;;;;4887594;29;20044;-69
2021/04/02 00:43:43;;;;;;;11.77;3.85;;;9.60;77.50;;;;;;4888027;29;20231;-69
2021/04/02 00:46:10;;;;;;;13.63;4.78;;;9.70;76.00;;;;;;4885818;29;20100;-69
2021/04/02 00:48:36;;;;;;;13.15;4.85;;;9.80;76.50;;;;;;4885646;29;20033;-69
2021/04/02 00:51:10;;;;;;;9.50;2.78;;;10.00;76.10;;;;;;4887599;29;20041;-69
2021/04/02 00:53:41;;;;;;;12.82;5.63;;;10.20;74.50;;;;;;4886050;29;20040;-69
2021/04/02 00:56:08;;;;;;;13.60;6.25;;;10.10;74.20;;;;;;4887928;29;20061;-69
2021/04/02 00:58:35;;;;;;;12.43;4.93;;;10.20;75.80;;;;;;4886826;29;20115;-69
2021/04/02 01:01:03;;;;;;;13.60;4.07;;;10.20;75.30;;;;;;4886741;29;20044;-68
2021/04/02 01:03:30;;;;;;;10.95;3.97;;;10.20;74.50;;;;;;4886281;29;20048;-69
2021/04/02 01:05:58;;;;;;;8.27;2.08;;;10.10;74.10;;;;;;4885932;29;20051;-68
2021/04/02 01:08:29;;;;;;;15.73;5.63;;;10.00;72.90;;;;;;4886524;29;20111;-68
2021/04/02 01:10:57;;;;;;;12.43;2.38;;;9.90;74.30;;;;;;4883990;29;20064;-68
2021/04/02 01:13:33;;;;;;;9.30;3.75;;;9.90;73.20;;;;;;4884663;29;20067;-68
2021/04/02 01:16:16;;;;;;;13.05;6.30;;;9.90;72.90;;;;;;4887173;29;20044;-68
2021/04/02 01:18:54;;;;;;;12.75;4.68;;;10.10;74.70;;;;;;4885821;29;20048;-68
2021/04/02 01:21:29;;;;;;;12.32;3.30;;;10.20;74.70;;;;;;4885052;29;20044;-69
2021/04/02 01:24:23;;;;;;;7.82;1.50;;;10.40;73.80;;;;;;4885142;29;20044;-68
2021/04/02 01:27:07;;;;;;;3.25;1.30;;;10.30;70.40;;;;;;4886041;29;20117;-68
2021/04/02 01:29:38;;;;;;;11.18;3.88;;;9.90;68.80;;;;;;4883578;29;20070;-68
2021/04/02 01:32:09;;;;;;;8.55;2.00;;;9.50;70.90;;;;;;4884250;29;20046;-68
2021/04/02 01:34:38;;;;;;;13.20;3.28;;;9.30;70.40;;;;;;4884519;29;20043;-67
2021/04/02 01:37:08;;;;;;;9.32;2.25;;;9.20;71.60;;;;;;4885512;29;20033;-67
2021/04/02 01:39:39;;;;;;;6.28;1.30;;;9.20;71.80;;;;;;4866478;29;20048;-67
2021/04/02 01:42:07;;;;;;;7.78;1.67;;;9.00;70.40;;;;;;4885808;29;20045;-67
2021/04/02 01:44:37;;;;;;;11.70;1.67;;;8.70;70.30;;;;;;4885596;29;20036;-67
2021/04/02 01:47:05;;;;;;;8.23;1.70;;;8.40;70.40;;;;;;4883752;29;20033;-67
2021/04/02 01:49:33;;;;;;;8.88;1.55;;;8.20;70.50;;;;;;4884121;29;20044;-67
2021/04/02 01:51:59;;;;;;;5.40;1.67;;;8.00;70.90;;;;;;4866872;29;20071;-66
2021/04/02 01:54:26;;;;;;;9.63;1.63;;;8.00;71.90;;;;;;4885195;29;20048;-67
2021/04/02 01:56:53;;;;;;;7.75;2.42;;;8.00;71.60;;;;;;4883566;29;20135;-67
2021/04/02 01:59:21;;;;;;;11.55;2.35;;;8.00;72.40;;;;;;4882209;29;20048;-67
2021/04/02 02:01:49;;;;;;;11.90;2.65;;;8.00;72.20;;;;;;4867032;29;20127;-68
2021/04/02 02:04:19;;;;;;;11.95;2.45;;;8.00;71.80;;;;;;4884752;29;20393;-67
2021/04/02 02:06:49;;;;;;;14.23;2.55;;;8.00;72.20;;;;;;4883224;29;20438;-67
2021/04/02 02:09:19;;;;;;;9.95;2.35;;;8.00;71.70;;;;;;4867449;29;20131;-67
2021/04/02 02:11:50;;;;;;;17.65;2.72;;;7.90;71.00;;;;;;4866212;29;20051;-67
2021/04/02 02:14:18;;;;;;;13.10;2.42;;;7.80;70.90;;;;;;4866249;29;20048;-68
2021/04/02 02:16:48;;;;;;;10.98;2.50;;;7.70;71.80;;;;;;4884076;29;20037;-68
2021/04/02 02:19:18;;;;;;;9.45;1.77;;;7.80;73.00;;;;;;4883727;29;20139;-68
2021/04/02 02:21:45;;;;;;;12.23;2.17;;;7.90;72.90;;;;;;4852545;29;20045;-68
2021/04/02 02:24:12;;;;;;;9.90;1.95;;;8.00;72.60;;;;;;4881390;29;20056;-68
2021/04/02 02:26:40;;;;;;;11.57;2.60;;;8.20;72.10;;;;;;4883084;29;20040;-68
2021/04/02 02:29:07;;;;;;;13.10;3.05;;;8.20;71.20;;;;;;4866311;29;20074;-68
2021/04/02 02:31:33;;;;;;;13.38;2.33;;;8.30;72.00;;;;;;4882972;29;20039;-67
2021/04/02 02:34:04;;;;;;;12.63;2.13;;;8.50;72.00;;;;;;4882447;29;20096;-68
2021/04/02 02:36:31;;;;;;;10.80;3.08;;;8.60;70.50;;;;;;4867871;29;20048;-68
2021/04/02 02:38:57;;;;;;;11.88;2.70;;;8.50;70.60;;;;;;4885016;29;20552;-69
2021/04/02 02:41:29;;;;;;;8.60;2.28;;;8.30;70.90;;;;;;4851243;29;20148;-68
2021/04/02 02:43:57;;;;;;;6.30;2.28;;;8.20;70.40;;;;;;4883807;29;20049;-67
2021/04/02 02:46:27;;;;;;;9.80;1.83;;;8.30;72.40;;;;;;4865927;29;20046;-68
2021/04/02 02:49:06;;;;;;;9.77;1.35;;;8.50;72.00;;;;;;4883900;29;20037;-68
2021/04/02 02:51:33;;;;;;;10.80;2.90;;;8.40;69.20;;;;;;4866590;29;20053;-68
2021/04/02 02:54:02;;;;;;;10.18;2.08;;;8.20;68.90;;;;;;4849500;29;20221;-69
2021/04/02 02:56:29;;;;;;;10.63;1.90;;;8.00;68.70;;;;;;4846413;29;1118128;-68
2021/04/02 02:58:57;;;;;;;10.73;1.77;;;7.90;68.90;;;;;;4882254;29;20067;-69
2021/04/02 03:01:24;;;;;;;8.57;1.63;;;7.70;69.70;;;;;;4886344;29;20052;-70
2021/04/02 03:03:53;;;;;;;15.23;1.42;;;7.70;70.20;;;;;;4883911;29;20033;-67
2021/04/02 03:06:22;;;;;;;8.15;1.80;;;7.60;70.00;;;;;;4883232;29;20052;-68
2021/04/02 03:08:51;;;;;;;11.80;2.35;;;7.50;70.00;;;;;;4883020;29;20039;-68
2021/04/02 03:11:20;;;;;;;11.07;2.33;;;7.60;70.40;;;;;;4868479;29;20560;-69
2021/04/02 03:13:48;;;;;;;8.02;1.75;;;7.60;71.80;;;;;;4886839;29;20072;-69
2021/04/02 03:16:15;;;;;;;6.22;1.80;;;8.00;72.40;;;;;;4883280;29;20077;-68
2021/04/02 03:18:41;;;;;;;10.20;1.88;;;8.30;71.30;;;;;;4884246;29;20141;-69
2021/04/02 03:21:09;;;;;;;8.68;1.42;;;8.30;69.10;;;;;;4864730;29;20041;-68
2021/04/02 03:23:37;;;;;;;7.75;1.60;;;8.10;67.80;;;;;;4867626;29;20044;-68
2021/04/02 03:26:04;;;;;;;10.43;1.83;;;8.00;69.30;;;;;;4884186;29;20063;-68
2021/04/02 03:28:31;;;;;;;7.78;1.48;;;8.10;69.10;;;;;;4854530;29;20044;-68
2021/04/02 03:30:57;;;;;;;9.93;1.73;;;8.10;68.90;;;;;;4873792;29;20040;-68
2021/04/02 03:33:25;;;;;;;10.25;1.30;;;8.10;68.20;;;;;;4888723;29;20048;-68
2021/04/02 03:35:58;;;;;;;13.57;2.67;;;8.00;68.00;;;;;;4889453;29;20163;-68
2021/04/02 03:38:29;;;;;;;9.57;1.85;;;7.80;68.10;;;;;;4887732;29;20092;-67
2021/04/02 03:40:56;;;;;;;10.57;1.95;;;7.70;68.90;;;;;;4887964;29;20047;-67
2021/04/02 03:43:25;;;;;;;7.32;2.47;;;7.70;70.10;;;;;;4870327;29;20037;-67
2021/04/02 03:45:52;;;;;;;11.23;2.88;;;8.10;72.50;;;;;;4885757;29;20064;-67
2021/04/02 03:48:20;;;;;;;8.40;2.10;;;8.60;73.10;;;;;;4886751;29;20051;-68
2021/04/02 03:50:52;;;;;;;10.20;1.50;;;8.80;71.00;;;;;;4888180;29;20418;-66
2021/04/02 03:53:36;;;;;;;9.25;1.45;;;9.10;70.10;;;;;;4868843;29;20119;-68
2021/04/02 03:56:05;;;;;;;11.05;3.22;;;9.00;68.40;;;;;;4886347;29;20128;-67
2021/04/02 03:58:33;;;;;;;9.60;2.20;;;8.90;68.00;;;;;;4886638;29;20143;-67
2021/04/02 04:01:10;;;;;;;10.15;2.65;;;8.70;68.60;;;;;;4869856;29;20064;-67
2021/04/02 04:03:42;;;;;;;9.70;3.33;;;8.80;70.30;;;;;;4867349;29;20051;-67
2021/04/02 04:06:14;;;;;;;6.65;2.30;;;9.00;72.70;;;;;;4887377;29;20049;-67
2021/04/02 04:08:41;;;;;;;5.45;1.67;;;9.50;71.60;;;;;;4887565;29;20072;-67
2021/04/02 04:11:10;;;;;;;6.22;2.17;;;9.60;69.50;;;;;;4885137;29;20044;-67
2021/04/02 04:13:38;;;;;;;6.13;2.75;;;9.90;71.00;;;;;;4885355;29;20506;-67
2021/04/02 04:16:06;;;;;;;9.77;2.92;;;10.40;72.70;;;;;;4869635;29;20041;-66
2021/04/02 04:18:33;;;;;;;8.05;2.28;;;11.00;72.50;;;;;;4885642;29;20060;-67
2021/04/02 04:21:03;;;;;;;5.95;2.50;;;11.50;71.20;;;;;;4885017;29;20040;-67
2021/04/02 04:23:30;;;;;;;5.82;1.70;;;11.80;70.20;;;;;;4884669;29;20088;-66
2021/04/02 04:25:58;;;;;;;7.57;2.03;;;11.80;66.70;;;;;;4886591;29;20040;-66
2021/04/02 04:28:26;;;;;;;7.05;2.53;;;11.80;66.40;;;;;;4885271;29;20056;-66
2021/04/02 04:30:56;;;;;;;4.15;1.73;;;11.70;67.30;;;;;;4885046;29;20499;-67
2021/04/02 04:33:25;;;;;;;5.75;2.40;;;11.60;65.60;;;;;;4869439;29;20044;-66
2021/04/02 04:35:52;;;;;;;3.70;1.55;;;11.50;63.00;;;;;;4886402;29;20119;-67
2021/04/02 04:38:19;;;;;;;11.32;2.60;;;11.30;62.50;;;;;;4867306;29;20197;-66
2021/04/02 04:40:47;;;;;;;5.95;1.95;;;11.30;64.40;;;;;;4886174;29;20055;-67
2021/04/02 04:43:14;;;;;;;9.95;1.95;;;11.40;64.70;;;;;;4871572;29;20358;-68
2021/04/02 04:45:40;;;;;;;6.97;1.65;;;11.20;62.30;;;;;;4885482;29;20055;-68
2021/04/02 04:48:07;;;;;;;6.95;2.58;;;11.00;63.20;;;;;;4886487;29;20040;-69
2021/04/02 04:50:33;;;;;;;5.18;2.13;;;10.80;64.70;;;;;;4885556;29;20126;-68
2021/04/02 04:53:04;;;;;;;4.75;2.28;;;11.00;67.90;;;;;;4887315;29;20037;-68
2021/04/02 04:55:33;;;;;;;4.63;1.52;;;11.60;68.20;;;;;;4883585;29;20044;-68
2021/04/02 04:57:59;;;;;;;4.85;2.22;;;12.20;67.20;;;;;;4886862;29;20933;-68
2021/04/02 05:00:28;;;;;;;6.50;2.25;;;12.70;66.00;;;;;;4869172;29;20450;-68
2021/04/02 05:02:56;;;;;;;7.25;2.30;;;13.10;64.90;;;;;;4883275;29;20040;-68
2021/04/02 05:05:26;;;;;;;6.00;2.03;;;13.30;64.10;;;;;;4868298;29;20068;-68
2021/04/02 05:07:55;;;;;;;7.90;2.35;;;13.60;63.40;;;;;;4884835;29;20041;-68
2021/04/02 05:10:21;;;;;;;5.00;2.10;;;13.70;61.30;;;;;;4885430;29;20041;-68
2021/04/02 05:12:48;;;;;;;7.15;2.50;;;13.50;60.50;;;;;;4884003;29;20445;-67
2021/04/02 05:15:15;;;;;;;8.63;1.85;;;13.10;59.10;;;;;;4868983;29;20484;-69
2021/04/02 05:17:42;;;;;;;5.55;1.58;;;12.90;58.40;;;;;;4884790;29;20048;-68
2021/04/02 05:20:10;;;;;;;7.13;1.70;;;12.50;58.70;;;;;;4884081;29;20056;-68
2021/04/02 05:22:36;;;;;;;6.35;1.63;;;12.20;59.90;;;;;;4885232;29;20065;-69
2021/04/02 05:25:06;;;;;;;4.22;1.27;;;11.70;59.60;;;;;;4885218;29;20361;-69
2021/04/02 05:27:31;;;;;;;7.05;2.15;;;11.50;60.30;;;;;;4886350;29;20116;-69
2021/04/02 05:29:58;;;;;;;8.85;2.13;;;11.30;60.00;;;;;;4885249;29;20096;-67
2021/04/02 05:32:24;;;;;;;9.00;1.80;;;11.10;60.00;;;;;;4885200;29;20037;-68
2021/04/02 05:34:50;;;;;;;4.22;1.40;;;10.90;61.60;;;;;;4869388;29;20096;-69
2021/04/02 05:37:16;;;;;;;8.88;1.48;;;11.00;62.60;;;;;;4886724;29;20041;-69
2021/04/02 05:39:42;;;;;;;9.02;2.10;;;11.10;61.60;;;;;;4884644;29;21581;-69
2021/04/02 05:42:12;;;;;;;6.47;1.63;;;11.00;59.90;;;;;;4886191;29;20044;-69
2021/04/02 05:44:38;;;;;;;7.22;1.60;;;10.80;59.70;;;;;;4867402;29;20126;-69
2021/04/02 05:47:10;;;;;;;9.35;2.42;;;10.70;61.50;;;;;;4885045;29;20579;-69
2021/04/02 05:49:36;;;;;;;7.18;1.35;;;10.80;60.40;;;;;;4885669;29;20044;-69
2021/04/02 05:52:03;;;;;;;7.32;1.65;;;10.60;60.90;;;;;;4883770;29;20095;-68
2021/04/02 05:54:43;;;;;;;3.95;1.17;;;10.50;61.80;;;;;;4867593;29;20058;-69
2021/04/02 05:57:09;;;;;;;7.95;1.83;;;10.60;62.80;;;;;;4868357;29;20499;-65
2021/04/02 05:59:41;;;;;;;10.50;1.88;;;10.70;61.80;;;;;;4886254;29;20084;-66
2021/04/02 06:02:08;;;;;;;7.82;2.20;;;10.60;60.30;;;;;;4888097;29;20044;-68
2021/04/02 06:04:36;;;;;;;12.50;1.83;;;10.40;60.80;;;;;;4887387;29;20098;-69
2021/04/02 06:07:02;;;;;;;8.23;2.05;;;10.30;60.40;;;;;;4887760;29;20100;-67
2021/04/02 06:09:28;;;;;;;12.25;1.40;;;10.20;61.10;;;;;;4872169;29;20120;-69
2021/04/02 06:11:53;;;;;;;12.88;1.75;;;10.30;60.70;;;;;;4888953;29;20068;-67
2021/04/02 06:14:20;;;;;;;11.02;2.50;;;10.30;61.50;;;;;;4883608;29;20083;-69
2021/04/02 06:16:53;;;;;;;8.45;1.92;;;10.70;63.00;;;;;;4884979;29;20564;-69
2021/04/02 06:19:20;;;;;;;7.15;2.20;;;11.10;60.30;;;;;;4884043;29;20506;-69
2021/04/02 06:21:52;;;;;;;10.40;2.08;;;11.40;58.70;;;;;;4866540;29;20044;-69
2021/04/02 06:24:43;;;;;;;11.07;2.10;;;11.60;57.30;;;;;;4867034;29;20059;-72
2021/04/02 06:27:11;;;;;;;9.27;1.55;;;11.70;56.00;;;;;;4883877;29;20056;-72
2021/04/02 06:29:39;;;;;;;11.02;1.95;;;11.50;55.70;;;;;;4883907;29;20040;-72
2021/04/02 06:32:13;;;;;;;11.45;1.60;;;11.50;55.80;;;;;;4884200;29;20071;-72
2021/04/02 06:34:46;;;;;;;10.40;2.22;;;11.60;55.80;;;;;;4883287;29;20044;-72
2021/04/02 06:37:12;;;;;;;8.85;2.25;;;11.70;55.00;;;;;;4885421;29;20047;-71
2021/04/02 06:39:38;;;;;;;4.32;1.15;;;11.60;55.20;;;;;;4871799;29;20037;-70
2021/04/02 06:42:07;;;;;;;8.50;1.40;;;11.50;54.70;;;;;;4887080;29;20124;-70
2021/04/02 06:44:34;;;;;;;9.27;1.65;;;11.40;55.20;;;;;;4872641;29;20037;-70
2021/04/02 06:47:00;;;;;;;7.25;1.52;;;11.40;55.30;;;;;;4870944;29;20043;-68
2021/04/02 06:49:27;;;;;;;10.25;1.73;;;11.30;55.00;;;;;;4867861;29;20040;-69
2021/04/02 06:51:54;;;;;;;6.90;1.70;;;11.10;54.50;;;;;;4886422;29;20085;-69
2021/04/02 06:54:25;;;;;;;8.88;1.88;;;10.90;54.30;;;;;;4887436;29;20044;-67
2021/04/02 06:57:04;;;;;;;7.25;1.80;;;10.60;54.50;;;;;;4886504;29;20048;-68
2021/04/02 06:59:34;;;;;;;15.20;2.22;;;10.30;54.90;;;;;;4870708;29;20829;-69
2021/04/02 07:02:03;;;;;;;7.82;1.30;;;10.20;55.40;;;;;;4871033;29;20056;-69
2021/04/02 07:04:31;;;;;;;10.85;1.80;;;10.20;55.90;;;;;;4884937;29;20048;-69
2021/04/02 07:06:59;;;;;;;14.75;1.60;;;10.10;55.70;;;;;;4883294;29;20051;-70
2021/04/02 07:09:27;;;;;;;9.10;1.48;;;10.00;55.90;;;;;;4883899;29;20105;-71
2021/04/02 07:11:57;;;;;;;10.07;1.45;;;9.80;56.00;;;;;;4865597;29;20100;-71
2021/04/02 07:14:23;;;;;;;5.78;1.35;;;9.70;56.00;;;;;;4866375;29;20069;-71
2021/04/02 07:16:50;;;;;;;10.50;2.40;;;9.70;56.40;;;;;;4883789;29;20500;-70
2021/04/02 07:19:16;;;;;;;9.98;1.88;;;9.80;56.40;;;;;;4867338;29;20131;-70
2021/04/02 07:21:43;;;;;;;7.32;1.40;;;9.80;56.30;;;;;;4881356;29;20551;-70
2021/04/02 07:24:09;;;;;;;8.73;1.98;;;9.90;56.30;;;;;;4885056;29;20049;-69
2021/04/02 07:26:36;;;;;;;9.18;1.70;;;10.00;56.30;;;;;;4882532;29;20462;-69
2021/04/02 07:29:02;;;;;;;9.95;1.83;;;10.00;56.50;;;;;;4883302;29;20037;-70
2021/04/02 07:31:30;;;;;;;6.15;1.45;;;10.10;56.50;;;;;;4884470;29;20052;-69
2021/04/02 07:33:57;;;;;;;14.02;1.92;;;10.10;57.90;;;;;;4891158;29;20489;-69
2021/04/02 07:36:25;;;;;;;7.15;1.83;;;10.30;58.20;;;;;;4875727;29;20433;-68
2021/04/02 07:38:52;;;;;;;14.63;2.47;;;10.50;59.40;;;;;;4889691;29;20091;-70
2021/04/02 07:41:19;;;;;;;6.90;1.50;;;10.70;58.60;;;;;;4888459;29;20037;-70
2021/04/02 07:43:57;;;;;;;13.75;1.80;;;10.80;57.10;;;;;;4892911;29;20041;-68
2021/04/02 07:46:27;;;;;;;14.10;1.80;;;10.90;56.20;;;;;;4889636;29;20043;-68
2021/04/02 07:49:08;;;;;;;9.88;1.85;;;10.60;55.40;;;;;;4893094;29;20493;-68
2021/04/02 07:51:48;;;;;;;10.02;1.83;;;10.60;56.00;;;;;;4892670;29;20036;-68
2021/04/02 07:54:22;;;;;;;11.30;2.15;;;10.50;56.20;;;;;;4856271;29;20048;-68
2021/04/02 07:56:54;;;;;;;10.50;1.92;;;10.30;59.00;;;;;;4891908;29;20129;-68
2021/04/02 07:59:34;;;;;;;9.40;2.03;;;10.40;59.60;;;;;;4889398;29;20040;-71
2021/04/02 08:02:04;;;;;;;7.15;1.50;;;10.60;58.10;;;;;;4866977;29;20043;-68
2021/04/02 08:04:43;;;;;;;8.77;2.30;;;11.00;61.10;;;;;;4887658;29;20040;-69
2021/04/02 08:07:13;;;;;;;7.32;2.00;;;11.60;62.10;;;;;;4868264;29;20069;-69
2021/04/02 08:09:47;;;;;;;7.43;1.88;;;12.10;60.60;;;;;;4894444;29;20055;-68
2021/04/02 08:12:15;;;;;;;5.55;1.67;;;12.50;59.90;;;;;;4890065;29;20043;-68
2021/04/02 08:14:50;;;;;;;9.10;2.05;;;12.80;59.60;;;;;;4893125;29;20561;-68
2021/04/02 08:17:27;;;;;;;8.18;1.55;;;13.10;59.20;;;;;;4896248;29;20677;-68
2021/04/02 08:20:03;;;;;;;11.85;1.83;;;13.20;57.60;;;;;;4877086;29;20039;-68
2021/04/02 08:22:29;;;;;;;7.13;1.83;;;13.30;57.80;;;;;;4895968;29;20047;-68
2021/04/02 08:24:55;;;;;;;7.88;2.17;;;13.40;57.40;;;;;;4895518;29;20029;-69
2021/04/02 08:27:20;;;;;;;9.65;2.00;;;13.40;55.90;;;;;;4896958;29;20113;-68
2021/04/02 08:30:01;;;;;;;10.75;1.80;;;13.40;56.40;;;;;;4876231;29;20084;-69
2021/04/02 08:32:27;;;;;;;7.03;1.90;;;13.40;56.60;;;;;;4889787;29;20706;-70
2021/04/02 08:34:53;;;;;;;10.10;1.92;;;13.50;56.00;;;;;;4855559;29;20493;-70
2021/04/02 08:37:19;;;;;;;6.63;1.58;;;13.10;55.60;;;;;;4885806;29;20048;-71
2021/04/02 08:39:46;;;;;;;7.43;1.75;;;12.80;55.30;;;;;;4888428;29;20040;-71
2021/04/02 08:42:12;;;;;;;5.88;1.50;;;12.60;56.40;;;;;;4882302;29;20049;-69
2021/04/02 08:44:46;;;;;;;10.15;2.00;;;12.70;56.90;;;;;;4870046;29;20041;-67
2021/04/02 08:47:14;;;;;;;6.60;2.20;;;12.80;55.40;;;;;;4885374;29;20048;-72
2021/04/02 08:49:52;;;;;;;7.75;1.50;;;12.50;55.40;;;;;;4869702;29;20049;-71
2021/04/02 08:52:20;;;;;;;5.30;1.60;;;12.40;57.00;;;;;;4870518;29;20525;-70
2021/04/02 08:54:47;;;;;;;9.70;1.60;;;12.50;57.70;;;;;;4887795;29;20028;-71
2021/04/02 08:57:14;;;;;;;11.77;1.83;;;12.70;56.50;;;;;;4870178;29;20056;-70
2021/04/02 08:59:46;;;;;;;9.98;1.42;;;12.90;55.90;;;;;;4858633;29;20052;-69
2021/04/02 09:02:13;;;;;;;9.67;1.43;;;12.90;54.80;;;;;;4887989;29;20564;-68
2021/04/02 09:04:39;;;;;;;9.85;1.60;;;13.10;55.40;;;;;;4887877;29;20063;-69
2021/04/02 09:07:05;;;;;;;7.30;1.20;;;13.10;54.90;;;;;;4869846;29;20097;-69
2021/04/02 09:09:31;;;;;;;5.65;1.75;;;13.10;54.90;;;;;;4890510;29;20072;-69
2021/04/02 09:12:09;;;;;;;7.22;1.50;;;13.30;55.70;;;;;;4891400;29;20821;-68
2021/04/02 09:14:40;;;;;;;5.43;1.33;;;13.30;55.20;;;;;;4886472;29;20574;-70
2021/04/02 09:17:11;;;;;;;12.48;1.70;;;13.30;54.80;;;;;;4887620;29;20068;-70
2021/04/02 09:19:38;;;;;;;6.32;1.50;;;12.80;53.20;;;;;;4885066;29;20056;-69
2021/04/02 09:22:05;;;;;;;11.02;1.90;;;12.40;53.50;;;;;;4856217;29;20039;-69
2021/04/02 09:24:34;;;;;;;9.60;1.42;;;11.90;54.10;;;;;;4884434;29;20043;-71
2021/04/02 09:27:07;;;;;;;11.65;2.22;;;11.60;55.60;;;;;;4885705;29;20547;-70
2021/04/02 09:29:33;;;;;;;;;;;11.40;56.10;;;;;;4885446;29;20040;-72
2021/04/02 09:32:01;;;;;;;9.32;1.67;;;11.20;56.10;;;;;;4865824;29;19923;-71
2021/04/02 09:34:28;;;;;;;5.15;1.60;;;11.00;57.20;;;;;;4884537;29;20125;-70
2021/04/02 09:36:55;;;;;;;8.73;1.40;;;11.20;58.50;;;;;;4885554;29;20123;-71
2021/04/02 09:39:26;;;;;;;8.07;1.50;;;11.50;58.20;;;;;;4884489;29;20512;-70
2021/04/02 09:41:55;;;;;;;6.90;1.15;;;11.60;57.00;;;;;;4885235;29;20591;-70
2021/04/02 09:44:24;;;;;;;12.00;2.47;;;11.30;56.80;;;;;;4885351;29;20124;-70
2021/04/02 09:46:52;;;;;;;10.55;1.70;;;11.20;57.40;;;;;;4884541;29;20119;-68
2021/04/02 09:49:24;;;;;;;10.13;2.40;;;11.00;57.40;;;;;;4883955;29;20890;-66
2021/04/02 09:51:52;;;;;;;8.70;2.00;;;10.70;57.40;;;;;;4867308;29;20037;-65
2021/04/02 09:54:19;;;;;;;10.75;1.85;;;10.40;57.70;;;;;;4884708;29;20044;-66
2021/04/02 09:56:47;;;;;;;13.18;1.90;;;10.10;57.80;;;;;;4868289;29;20072;-66
2021/04/02 09:59:14;;;;;;;9.32;1.50;;;9.90;58.00;;;;;;4884440;29;20048;-64
2021/04/02 10:01:41;;;;;;;8.77;1.75;;;9.80;57.80;;;;;;4883004;29;20124;-65
2021/04/02 10:04:08;;;;;;;10.07;2.10;;;9.70;57.70;;;;;;4883036;29;20408;-66
2021/04/02 10:06:34;;;;;;;5.95;1.23;;;9.60;57.50;;;;;;4866854;29;20080;-73
2021/04/02 10:09:01;;;;;;;10.82;1.80;;;9.50;57.80;;;;;;4883197;29;20047;-71
2021/04/02 10:11:27;;;;;;;11.40;1.73;;;9.40;58.30;;;;;;4866622;29;20398;-66
2021/04/02 10:13:53;;;;;;;15.00;3.55;;;9.30;58.50;;;;;;4866114;29;20041;-66
2021/04/02 10:16:20;;;;;;;15.88;2.00;;;9.20;58.60;;;;;;4885071;29;20112;-66
2021/04/02 10:18:49;;;;;;;12.20;2.25;;;9.20;59.10;;;;;;4883593;29;20032;-67
2021/04/02 10:21:20;;;;;;;11.60;1.50;;;9.10;59.30;;;;;;4883949;29;20037;-65
2021/04/02 10:23:46;;;;;;;5.88;1.33;;;9.00;59.40;;;;;;4883706;29;20465;-68
2021/04/02 10:26:12;;;;;;;10.23;2.08;;;8.90;59.60;;;;;;4884378;29;20369;-68
2021/04/02 10:28:38;;;;;;;9.57;1.88;;;9.00;59.50;;;;;;4884364;29;20065;-67
2021/04/02 10:31:05;;;;;;;14.68;2.40;;;8.90;59.50;;;;;;4866292;29;20519;-66
2021/04/02 10:33:32;;;;;;;15.35;1.88;;;8.90;59.70;;;;;;4883774;29;20040;-65
2021/04/02 10:35:58;;;;;;;7.85;1.83;;;8.80;59.90;;;;;;4864075;29;20497;-63
2021/04/02 10:38:25;;;;;;;10.82;1.83;;;8.80;60.00;;;;;;4866050;29;20040;-63
2021/04/02 10:40:51;;;;;;;9.15;1.70;;;8.80;60.10;;;;;;4883917;29;20040;-63
2021/04/02 10:43:17;;;;;;;8.20;1.55;;;8.80;60.50;;;;;;4884052;29;20405;-64
2021/04/02 10:45:44;;;;;;;8.27;1.73;;;8.80;60.90;;;;;;4882667;29;20052;-63
2021/04/02 10:48:10;;;;;;;11.90;1.90;;;8.80;60.90;;;;;;4883672;29;20045;-63
2021/04/02 10:50:40;;;;;;;10.30;1.85;;;8.90;61.20;;;;;;4883442;29;20072;-63
2021/04/02 10:53:07;;;;;;;7.38;1.60;;;8.90;60.90;;;;;;4884036;29;20124;-63
2021/04/02 10:55:33;;;;;;;10.50;2.17;;;8.90;60.70;;;;;;4882296;29;20095;-63
2021/04/02 10:57:59;;;;;;;11.05;1.60;;;8.90;60.30;;;;;;4883486;29;20036;-63
2021/04/02 11:00:25;;;;;;;15.48;2.00;;;8.80;60.10;;;;;;4881359;29;20428;-63
2021/04/02 11:02:52;;;;;;;13.38;2.22;;;8.80;60.30;;;;;;4883055;29;20167;-63
2021/04/02 11:05:19;;;;;;;9.38;1.75;;;8.80;60.30;;;;;;4864899;29;20040;-64
2021/04/02 11:07:44;;;;;;;14.32;2.28;;;8.80;60.30;;;;;;4882740;29;20051;-64
2021/04/02 11:10:12;;;;;;;10.10;2.03;;;8.80;60.70;;;;;;4860426;29;20052;-63
2021/04/02 11:12:38;;;;;;;9.70;1.85;;;8.80;60.40;;;;;;4882845;29;20037;-63
2021/04/02 11:15:08;;;;;;;11.18;1.95;;;8.80;60.40;;;;;;4883248;29;20052;-63
2021/04/02 11:17:34;;;;;;;10.30;2.00;;;8.90;60.70;;;;;;4883737;29;20116;-64
2021/04/02 11:20:01;;;;;;;11.25;2.28;;;8.90;60.90;;;;;;4884101;29;20048;-63
2021/04/02 11:22:26;;;;;;;8.90;1.67;;;9.00;59.80;;;;;;4883914;29;20044;-66
2021/04/02 11:24:52;;;;;;;7.38;1.40;;;9.00;59.80;;;;;;4883539;29;20041;-62
2021/04/02 11:27:21;;;;;;;6.00;0.90;;;9.00;58.80;;;;;;4883390;29;20515;-63
2021/04/02 11:29:47;;;;;;;7.45;1.25;;;9.10;58.20;;;;;;4866778;29;20069;-62
2021/04/02 11:32:14;;;;;;;9.55;1.55;;;9.20;57.90;;;;;;4883116;29;20133;-65
2021/04/02 11:34:42;;;;;;;7.38;1.17;;;9.20;57.00;;;;;;4883929;29;20085;-64
2021/04/02 11:37:10;;;;;;;4.57;1.13;;;9.30;56.50;;;;;;4867027;29;20033;-63
2021/04/02 11:39:37;;;;;;;8.50;1.30;;;9.40;56.00;;;;;;4883124;29;20071;-63
2021/04/02 11:42:03;;;;;;;7.20;1.02;;;9.50;55.70;;;;;;4881761;29;20040;-64
2021/04/02 11:44:29;;;;;;;4.78;1.23;;;9.50;55.40;;;;;;4882263;29;20040;-64
2021/04/02 11:46:54;;;;;;;5.72;1.00;;;9.50;55.60;;;;;;4864952;29;20123;-65
2021/04/02 11:49:20;;;;;;;6.38;1.67;;;9.50;55.80;;;;;;4882506;29;20036;-63
2021/04/02 11:51:46;;;;;;;7.95;0.95;;;9.60;56.50;;;;;;4869718;29;20784;-63
2021/04/02 11:54:12;;;;;;;9.48;1.13;;;9.70;57.20;;;;;;4887397;29;20055;-63
2021/04/02 11:56:39;;;;;;;7.45;1.20;;;9.70;56.60;;;;;;4884791;29;20041;-63
2021/04/02 11:59:05;;;;;;;11.95;3.30;;;9.80;56.80;;;;;;4886832;29;20041;-63
2021/04/02 12:01:31;;;;;;;9.60;2.30;;;10.00;56.60;;;;;;4866728;29;20071;-64
2021/04/02 12:03:57;;;;;;;7.07;1.10;;;10.10;56.40;;;;;;4854405;29;20093;-64
2021/04/02 12:06:23;;;;;;;6.63;1.33;;;10.30;56.10;;;;;;4885790;29;20037;-64
2021/04/02 12:08:49;;;;;;;8.95;1.60;;;10.40;55.20;;;;;;4870632;29;20103;-64
2021/04/02 12:11:15;;;;;;;4.45;1.25;;;10.50;54.90;;;;;;4869091;29;20061;-64
2021/04/02 12:13:41;;;;;;;6.45;1.60;;;10.50;54.70;;;;;;4885498;29;20044;-64
2021/04/02 12:16:07;;;;;;;6.32;1.80;;;10.50;54.60;;;;;;4869604;29;20056;-65
2021/04/02 12:18:33;;;;;;;7.22;1.05;;;10.50;54.40;;;;;;4886099;29;20033;-65
2021/04/02 12:20:59;;;;;;;4.32;0.80;;;10.50;54.30;;;;;;4885531;29;20032;-64
2021/04/02 12:23:25;;;;;;;4.28;1.02;;;10.60;55.00;;;;;;4868826;29;20045;-65
2021/04/02 12:25:51;;;;;;;5.38;1.45;;;10.80;55.30;;;;;;4869185;29;20037;-65
2021/04/02 12:28:17;;;;;;;5.68;1.30;;;10.90;55.50;;;;;;4869331;29;20057;-64
2021/04/02 12:30:43;;;;;;;3.53;0.95;;;11.00;54.80;;;;;;4885048;29;20059;-65
2021/04/02 12:33:09;;;;;;;5.88;1.85;;;11.00;54.50;;;;;;4853237;29;21052;-65
2021/04/02 12:35:35;;;;;;;11.52;1.50;;;11.10;54.60;;;;;;4884775;29;20033;-64
2021/04/02 12:38:01;;;;;;;8.60;2.15;;;11.00;54.60;;;;;;4868954;29;20769;-64
2021/04/02 12:40:27;;;;;;;3.78;1.10;;;11.00;54.70;;;;;;4868227;29;20135;-65
2021/04/02 12:42:54;;;;;;;5.97;1.23;;;10.90;54.50;;;;;;4884920;29;20116;-65
2021/04/02 12:45:20;;;;;;;4.90;1.15;;;10.90;54.70;;;;;;4884556;29;20037;-65
2021/04/02 12:47:46;;;;;;;12.82;2.35;;;10.80;55.00;;;;;;4886104;29;20148;-64
2021/04/02 12:50:16;;;;;;;8.45;1.90;;;10.70;55.00;;;;;;4884470;29;20397;-64
2021/04/02 12:52:42;;;;;;;4.78;1.48;;;10.70;55.40;;;;;;4884816;29;20385;-64
2021/04/02 12:55:11;;;;;;;4.57;1.10;;;10.60;55.50;;;;;;4867789;29;20037;-64